In Rescue
 
Open Full Screen Window  High Contrast Mode
November 27, 2020 11:46 PM EST
Weather Information
Wind Direction
  ---
Wind Speed
  00 kt (0 mph)
Wind Gust
  00 kt (0 mph)
Altimeter
30.01 in
Visibility
10 SM
Temperature
03° C
37° F
Dewpoint
-05° C
23° F
Humidity
56%
Sky Condition
Broken @ 4,800 ft
VFR

METAR KACB 280446Z AUTO 00000KT 10SM BKN048 03/M05 A3001 RMK AO2 T00291052

FAA Disclaimer: The data displayed is for advisory purposes only and is not to be used for flight planning or operations.